Time,TemperatureF,DewpointF,PressureIn,WindDirection,WindDirectionDegrees,WindSpeedMPH,WindSpeedGustMPH,Humidity,HourlyPrecipIn,Conditions,Clouds,dailyrainin,SolarRadiationWatts/m^2,SoftwareType,DateUTC
2013-05-16 06:52:00,62.8,53.2,29.82,SW,225,3.4,3.4,71,0.00,,---,0.00,0.00,VWS V14.01,2013-05-16 11:52:00,
2013-05-16 06:53:00,62.8,53.2,29.82,SSW,202,3.8,3.8,71,0.00,,---,0.00,0.00,VWS V14.01,2013-05-16 11:53:00,
2013-05-16 06:54:00,62.8,53.2,29.82,SSW,202,3.1,3.8,71,0.00,,---,0.00,0.00,VWS V14.01,2013-05-16 11:54:00,
2013-05-16 06:56:00,62.8,53.2,29.82,SSW,202,4.0,4.0,71,0.00,,---,0.00,0.00,VWS V14.01,2013-05-16 11:56:00,
2013-05-16 06:58:00,63.0,53.4,29.82,SW,225,2.9,2.9,71,0.00,,---,0.00,0.00,VWS V14.01,2013-05-16 11:58:00,
2013-05-16 07:04:00,63.1,53.6,29.82,South,180,2.9,2.9,71,0.00,,---,0.00,0.00,VWS V14.01,2013-05-16 12:04:00,
2013-05-16 07:09:00,63.3,54.2,29.85,SSW,202,2.0,3.1,72,0.00,,---,0.00,0.00,VWS V14.01,2013-05-16 12:09:00,
2013-05-16 07:15:00,63.7,54.9,29.85,SSW,202,3.8,3.8,73,0.00,,---,0.00,0.00,VWS V14.01,2013-05-16 12:15:00,
2013-05-16 07:20:00,63.9,55.0,29.85,SSW,202,2.7,2.7,73,0.00,,---,0.00,0.00,VWS V14.01,2013-05-16 12:20:00,
2013-05-16 07:25:00,64.0,55.2,29.85,SSW,202,3.1,3.6,73,0.00,,---,0.00,0.00,VWS V14.01,2013-05-16 12:25:00,
2013-05-16 07:31:00,64.8,55.9,29.85,SSW,202,4.3,4.3,73,0.00,,---,0.00,0.00,VWS V14.01,2013-05-16 12:31:00,
2013-05-16 07:37:00,64.8,55.9,29.85,SSE,158,4.0,4.5,73,0.00,,---,0.00,0.00,VWS V14.01,2013-05-16 12:37:00,
2013-05-16 07:42:00,65.5,56.2,29.85,SW,225,3.1,3.1,72,0.00,,---,0.00,0.00,VWS V14.01,2013-05-16 12:42:00,
2013-05-16 07:47:00,65.5,56.2,29.85,SW,225,3.4,3.4,72,0.00,,---,0.00,0.00,VWS V14.01,2013-05-16 12:47:00,
2013-05-16 07:53:00,66.2,56.9,29.82,South,180,4.0,4.0,72,0.00,,---,0.00,0.00,VWS V14.01,2013-05-16 12:53:00,
2013-05-16 07:58:00,66.4,56.7,29.82,SSW,202,2.9,4.3,71,0.00,,---,0.00,0.00,VWS V14.01,2013-05-16 12:58:00,
2013-05-16 08:04:00,66.7,56.7,29.82,SW,225,2.5,3.1,70,0.00,,---,0.00,0.00,VWS V14.01,2013-05-16 13:04:00,
2013-05-16 08:09:00,67.1,57.0,29.82,SSE,158,3.4,3.4,70,0.00,,---,0.00,0.00,VWS V14.01,2013-05-16 13:09:00,
2013-05-16 08:15:00,67.8,57.3,29.82,SSW,202,4.3,4.3,69,0.00,,---,0.00,0.00,VWS V14.01,2013-05-16 13:15:00,
2013-05-16 08:21:00,68.2,56.8,29.85,SW,225,3.4,4.0,67,0.00,,---,0.00,0.00,VWS V14.01,2013-05-16 13:21:00,
2013-05-16 08:26:00,68.7,56.9,29.85,SSW,202,4.7,5.4,66,0.00,,---,0.00,0.00,VWS V14.01,2013-05-16 13:26:00,
2013-05-16 08:31:00,68.7,56.9,29.85,SSW,202,7.4,7.4,66,0.00,,---,0.00,0.00,VWS V14.01,2013-05-16 13:31:00,
2013-05-16 08:37:00,69.6,57.3,29.85,SSW,202,5.6,5.6,65,0.00,,---,0.00,0.00,VWS V14.01,2013-05-16 13:37:00,
2013-05-16 08:42:00,70.0,56.8,29.85,SSE,158,5.8,8.1,63,0.00,,---,0.00,0.00,VWS V14.01,2013-05-16 13:42:00,
2013-05-16 08:47:00,70.3,54.9,29.85,South,180,7.8,7.8,58,0.00,,---,0.00,0.00,VWS V14.01,2013-05-16 13:47:00,
2013-05-16 08:53:00,70.9,55.4,29.85,South,180,3.6,7.6,58,0.00,,---,0.00,0.00,VWS V14.01,2013-05-16 13:53:00,
2013-05-16 08:58:00,71.4,54.4,29.85,SSE,158,4.3,5.4,55,0.00,,---,0.00,0.00,VWS V14.01,2013-05-16 13:58:00,
2013-05-16 09:03:00,71.4,54.4,29.85,South,180,3.8,3.8,55,0.00,,---,0.00,0.00,VWS V14.01,2013-05-16 14:03:00,
2013-05-16 09:09:00,71.8,53.8,29.85,ESE,112,3.8,3.8,53,0.00,,---,0.00,0.00,VWS V14.01,2013-05-16 14:09:00,
2013-05-16 09:15:00,71.8,53.8,29.85,SE,135,1.6,1.6,53,0.00,,---,0.00,0.00,VWS V14.01,2013-05-16 14:15:00,
2013-05-16 09:21:00,73.2,53.5,29.85,ESE,112,4.3,4.3,50,0.00,,---,0.00,0.00,VWS V14.01,2013-05-16 14:21:00,
2013-05-16 09:26:00,73.6,52.7,29.85,SSE,158,2.7,2.7,48,0.00,,---,0.00,0.00,VWS V14.01,2013-05-16 14:26:00,
2013-05-16 09:31:00,73.8,52.9,29.85,South,180,2.0,2.0,48,0.00,,---,0.00,0.00,VWS V14.01,2013-05-16 14:31:00,
2013-05-16 09:37:00,73.8,51.7,29.85,WSW,248,2.7,2.7,46,0.00,,---,0.00,0.00,VWS V14.01,2013-05-16 14:37:00,
2013-05-16 09:43:00,73.4,50.8,29.85,SSW,202,1.6,1.6,45,0.00,,---,0.00,0.00,VWS V14.01,2013-05-16 14:43:00,
2013-05-16 09:48:00,74.1,50.2,29.85,SE,135,3.6,4.3,43,0.00,,---,0.00,0.00,VWS V14.01,2013-05-16 14:48:00,
2013-05-16 09:53:00,74.3,50.4,29.85,South,180,3.8,4.0,43,0.00,,---,0.00,0.00,VWS V14.01,2013-05-16 14:53:00,
2013-05-16 09:59:00,74.7,50.7,29.85,ESE,112,2.2,3.1,43,0.00,,---,0.00,0.00,VWS V14.01,2013-05-16 14:59:00,
2013-05-16 10:05:00,75.2,50.6,29.85,East,90,4.3,4.3,42,0.00,,---,0.00,0.00,VWS V14.01,2013-05-16 15:05:00,
2013-05-16 10:10:00,75.4,50.1,29.85,SE,135,6.3,6.3,41,0.00,,---,0.00,0.00,VWS V14.01,2013-05-16 15:10:00,
2013-05-16 10:16:00,76.1,50.7,29.85,SE,135,5.8,5.8,41,0.00,,---,0.00,0.00,VWS V14.01,2013-05-16 15:16:00,
2013-05-16 10:21:00,76.3,49.5,29.82,ESE,112,2.0,2.0,39,0.00,,---,0.00,0.00,VWS V14.01,2013-05-16 15:21:00,
2013-05-16 10:26:00,76.3,49.5,29.82,SSE,158,2.9,3.8,39,0.00,,---,0.00,0.00,VWS V14.01,2013-05-16 15:26:00,
2013-05-16 10:31:00,76.6,48.4,29.82,WSW,248,3.4,4.3,37,0.00,,---,0.00,0.00,VWS V14.01,2013-05-16 15:31:00,
2013-05-16 10:37:00,76.5,47.5,29.85,East,90,4.7,4.7,36,0.00,,---,0.00,0.00,VWS V14.01,2013-05-16 15:37:00,
2013-05-16 10:43:00,76.8,46.3,29.85,ESE,112,6.0,6.0,34,0.00,,---,0.00,0.00,VWS V14.01,2013-05-16 15:43:00,
2013-05-16 10:55:00,0.0,0.0,29.82,SE,135,3.4,3.4,0,0.00,,---,0.00,0.00,VWS V14.01,2013-05-16 15:55:00,
2013-05-16 11:01:00,77.7,44.7,29.82,ESE,112,5.6,6.0,31,0.00,,---,0.00,0.00,VWS V14.01,2013-05-16 16:01:00,
2013-05-16 11:08:00,78.1,45.0,29.82,SE,135,6.0,6.3,31,0.00,,---,0.00,0.00,VWS V14.01,2013-05-16 16:08:00,
2013-05-16 11:13:00,78.3,45.2,29.82,South,180,4.9,644.4,31,0.00,,---,0.00,0.00,VWS V14.01,2013-05-16 16:13:00,
2013-05-16 11:18:00,78.3,45.2,29.82,South,180,3.8,3.8,31,0.00,,---,0.00,0.00,VWS V14.01,2013-05-16 16:18:00,
2013-05-16 11:23:00,78.3,45.2,29.82,SSE,158,6.0,6.0,31,0.00,,---,0.00,0.00,VWS V14.01,2013-05-16 16:23:00,
2013-05-16 11:28:00,78.3,45.2,29.82,South,180,6.3,6.3,31,0.00,,---,0.00,0.00,VWS V14.01,2013-05-16 16:28:00,
2013-05-16 11:33:00,79.0,44.9,29.82,South,180,6.3,6.3,30,0.00,,---,0.00,0.00,VWS V14.01,2013-05-16 16:33:00,
2013-05-16 11:38:00,79.0,41.2,29.79,SSE,158,11.2,11.2,26,0.00,,---,0.00,0.00,VWS V14.01,2013-05-16 16:38:00,
2013-05-16 11:44:00,79.2,42.3,29.79,SE,135,9.4,9.4,27,0.00,,---,0.00,0.00,VWS V14.01,2013-05-16 16:44:00,
2013-05-16 11:50:00,79.0,40.2,29.79,South,180,5.8,5.8,25,0.00,,---,0.00,0.00,VWS V14.01,2013-05-16 16:50:00,
2013-05-16 11:56:00,79.5,40.7,29.79,ESE,112,7.4,8.7,25,0.00,,---,0.00,0.00,VWS V14.01,2013-05-16 16:56:00,
2013-05-16 12:02:00,79.9,41.0,29.79,SSE,158,8.7,9.6,25,0.00,,---,0.00,0.00,VWS V14.01,2013-05-16 17:02:00,
2013-05-16 12:08:00,80.1,41.1,29.79,SSE,158,4.0,4.9,25,0.00,,---,0.00,0.00,VWS V14.01,2013-05-16 17:08:00,
2013-05-16 12:14:00,80.1,39.0,29.79,SE,135,3.8,6.0,23,0.00,,---,0.00,0.00,VWS V14.01,2013-05-16 17:14:00,
2013-05-16 12:19:00,80.1,39.0,29.79,SE,135,5.4,5.6,23,0.00,,---,0.00,0.00,VWS V14.01,2013-05-16 17:19:00,
2013-05-16 12:24:00,78.4,38.7,29.79,SE,135,7.2,8.5,24,0.00,,---,0.00,0.00,VWS V14.01,2013-05-16 17:24:00,
2013-05-16 12:30:00,79.7,40.8,29.79,ESE,112,7.6,7.6,25,0.00,,---,0.00,0.00,VWS V14.01,2013-05-16 17:30:00,
2013-05-16 12:36:00,80.1,41.1,29.79,SSE,158,7.8,7.8,25,0.00,,---,0.00,0.00,VWS V14.01,2013-05-16 17:36:00,
2013-05-16 12:42:00,80.4,39.3,29.79,ESE,112,3.1,3.1,23,0.00,,---,0.00,0.00,VWS V14.01,2013-05-16 17:42:00,
2013-05-16 12:48:00,80.1,37.8,29.79,SSE,158,7.6,7.6,22,0.00,,---,0.00,0.00,VWS V14.01,2013-05-16 17:48:00,
2013-05-16 12:53:00,79.9,37.7,29.79,SSE,158,11.0,11.0,22,0.00,,---,0.00,0.00,VWS V14.01,2013-05-16 17:53:00,
2013-05-16 12:59:00,80.8,38.4,29.79,SSE,158,5.4,5.6,22,0.00,,---,0.00,0.00,VWS V14.01,2013-05-16 17:59:00,
2013-05-16 13:04:00,80.8,38.4,29.79,South,180,8.7,8.7,22,0.00,,---,0.00,0.00,VWS V14.01,2013-05-16 18:04:00,
2013-05-16 13:09:00,81.1,37.5,29.79,SSE,158,6.3,6.5,21,0.00,,---,0.00,0.00,VWS V14.01,2013-05-16 18:09:00,
2013-05-16 13:15:00,81.1,37.5,29.79,SSE,158,9.8,10.1,21,0.00,,---,0.00,0.00,VWS V14.01,2013-05-16 18:15:00,
2013-05-16 13:21:00,81.1,36.3,29.79,South,180,6.7,8.1,20,0.00,,---,0.00,0.00,VWS V14.01,2013-05-16 18:21:00,
2013-05-16 13:26:00,81.1,36.3,29.79,SSE,158,4.3,7.4,20,0.00,,---,0.00,0.00,VWS V14.01,2013-05-16 18:26:00,
2013-05-16 13:32:00,81.9,38.1,29.79,SSW,202,6.5,6.5,21,0.00,,---,0.00,0.00,VWS V14.01,2013-05-16 18:32:00,
2013-05-16 13:38:00,81.7,36.8,29.76,ESE,112,4.0,4.0,20,0.00,,---,0.00,0.00,VWS V14.01,2013-05-16 18:38:00,
2013-05-16 13:44:00,81.1,36.3,29.76,SSE,158,7.8,7.8,20,0.00,,---,0.00,0.00,VWS V14.01,2013-05-16 18:44:00,
2013-05-16 13:50:00,82.4,37.3,29.79,South,180,6.9,6.9,20,0.00,,---,0.00,0.00,VWS V14.01,2013-05-16 18:50:00,
2013-05-16 13:55:00,81.9,36.9,29.79,SSE,158,8.1,13.2,20,0.00,,---,0.00,0.00,VWS V14.01,2013-05-16 18:55:00,
2013-05-16 14:00:00,81.7,36.8,29.79,SE,135,8.7,13.0,20,0.00,,---,0.00,0.00,VWS V14.01,2013-05-16 19:00:00,
2013-05-16 14:05:00,81.7,36.8,29.79,SSW,202,7.2,7.8,20,0.00,,---,0.00,0.00,VWS V14.01,2013-05-16 19:05:00,
2013-05-16 14:10:00,81.7,36.8,29.79,SSE,158,10.5,10.5,20,0.00,,---,0.00,0.00,VWS V14.01,2013-05-16 19:10:00,
2013-05-16 14:16:00,81.3,36.5,29.79,SE,135,12.1,12.1,20,0.00,,---,0.00,0.00,VWS V14.01,2013-05-16 19:16:00,
2013-05-16 14:21:00,81.0,36.2,29.79,SE,135,8.5,8.5,20,0.00,,---,0.00,0.00,VWS V14.01,2013-05-16 19:21:00,
2013-05-16 14:26:00,81.0,36.2,29.79,SSE,158,4.3,4.3,20,0.00,,---,0.00,0.00,VWS V14.01,2013-05-16 19:26:00,
2013-05-16 14:32:00,82.8,37.6,29.79,South,180,8.7,8.7,20,0.00,,---,0.00,0.00,VWS V14.01,2013-05-16 19:32:00,
2013-05-16 14:38:00,82.2,37.2,29.79,SSW,202,6.9,7.8,20,0.00,,---,0.00,0.00,VWS V14.01,2013-05-16 19:38:00,
2013-05-16 14:44:00,82.2,37.2,29.79,SE,135,10.1,10.1,20,0.00,,---,0.00,0.00,VWS V14.01,2013-05-16 19:44:00,
2013-05-16 14:50:00,82.9,36.5,29.79,SSE,158,10.5,10.5,19,0.00,,---,0.00,0.00,VWS V14.01,2013-05-16 19:50:00,
2013-05-16 14:56:00,82.8,36.3,29.79,SSE,158,12.1,12.1,19,0.00,,---,0.00,0.00,VWS V14.01,2013-05-16 19:56:00,
2013-05-16 15:02:00,82.8,36.3,29.79,SSE,158,3.1,3.1,19,0.00,,---,0.00,0.00,VWS V14.01,2013-05-16 20:02:00,
2013-05-16 15:08:00,82.6,36.2,29.79,SSE,158,7.4,14.8,19,0.00,,---,0.00,0.00,VWS V14.01,2013-05-16 20:08:00,
2013-05-16 15:15:00,82.2,35.9,29.79,SSE,158,8.5,8.5,19,0.00,,---,0.00,0.00,VWS V14.01,2013-05-16 20:15:00,
2013-05-16 15:20:00,82.0,35.8,29.79,SSE,158,9.6,10.1,19,0.00,,---,0.00,0.00,VWS V14.01,2013-05-16 20:20:00,
2013-05-16 15:25:00,81.9,35.6,24.57,SSE,158,7.4,7.4,19,0.00,,---,0.00,0.00,VWS V14.01,2013-05-16 20:25:00,
2013-05-16 15:31:00,81.9,35.6,29.79,SSW,202,6.3,7.4,19,0.00,,---,0.00,0.00,VWS V14.01,2013-05-16 20:31:00,
2013-05-16 15:37:00,83.5,36.9,29.79,SSE,158,9.8,9.8,19,0.00,,---,0.00,0.00,VWS V14.01,2013-05-16 20:37:00,
2013-05-16 15:43:00,83.7,37.1,29.79,SE,135,6.5,6.5,19,0.00,,---,0.00,0.00,VWS V14.01,2013-05-16 20:43:00,
2013-05-16 15:49:00,82.2,33.1,29.79,SSE,158,6.3,8.1,17,0.00,,---,0.00,0.00,VWS V14.01,2013-05-16 20:49:00,
2013-05-16 15:55:00,82.2,33.1,29.79,SSE,158,10.3,10.3,17,0.00,,---,0.00,0.00,VWS V14.01,2013-05-16 20:55:00,
2013-05-16 16:01:00,82.0,33.0,29.79,SSE,158,6.0,6.0,17,0.00,,---,0.00,0.00,VWS V14.01,2013-05-16 21:01:00,
2013-05-16 16:07:00,83.1,32.3,29.79,South,180,3.8,5.4,16,0.00,,---,0.00,0.00,VWS V14.01,2013-05-16 21:07:00,
2013-05-16 16:13:00,83.7,32.8,29.76,SSE,158,10.5,10.5,16,0.00,,---,0.00,0.00,VWS V14.01,2013-05-16 21:13:00,
2013-05-16 16:18:00,83.7,32.8,29.76,South,180,5.6,6.5,16,0.00,,---,0.00,0.00,VWS V14.01,2013-05-16 21:18:00,
2013-05-16 16:24:00,82.8,32.0,29.76,SSW,202,7.4,7.4,16,0.00,,---,0.00,0.00,VWS V14.01,2013-05-16 21:24:00,
2013-05-16 16:30:00,82.8,32.0,29.76,SSW,202,6.3,11.0,16,0.00,,---,0.00,0.00,VWS V14.01,2013-05-16 21:30:00,
2013-05-16 16:39:00,0.0,0.0,29.76,SW,225,5.8,7.6,0,0.00,,---,0.00,0.00,VWS V14.01,2013-05-16 21:39:00,
2013-05-16 16:44:00,82.6,31.9,29.76,South,180,10.1,15.2,16,0.00,,---,0.00,0.00,VWS V14.01,2013-05-16 21:44:00,
2013-05-16 16:50:00,81.7,32.7,29.76,SSE,158,5.6,5.6,17,0.00,,---,0.00,0.00,VWS V14.01,2013-05-16 21:50:00,
2013-05-16 16:56:00,82.2,33.1,29.76,SSW,202,7.4,7.4,17,0.00,,---,0.00,0.00,VWS V14.01,2013-05-16 21:56:00,
2013-05-16 17:01:00,82.9,36.5,29.76,SSW,202,5.4,8.5,19,0.00,,---,0.00,0.00,VWS V14.01,2013-05-16 22:01:00,
2013-05-16 17:06:00,82.2,33.1,29.76,SSW,202,9.4,9.4,17,0.00,,---,0.00,0.00,VWS V14.01,2013-05-16 22:06:00,
2013-05-16 17:12:00,82.2,33.1,29.76,SSW,202,6.3,6.3,17,0.00,,---,0.00,0.00,VWS V14.01,2013-05-16 22:12:00,
2013-05-16 17:17:00,81.3,32.4,29.76,SSW,202,5.6,7.2,17,0.00,,---,0.00,0.00,VWS V14.01,2013-05-16 22:17:00,
2013-05-16 17:22:00,80.6,31.8,29.76,South,180,4.9,7.4,17,0.00,,---,0.00,0.00,VWS V14.01,2013-05-16 22:22:00,
2013-05-16 17:27:00,80.4,31.7,29.76,South,180,5.6,5.6,17,0.00,,---,0.00,0.00,VWS V14.01,2013-05-16 22:27:00,
2013-05-16 17:32:00,80.4,31.7,29.76,SW,225,4.0,4.0,17,0.00,,---,0.00,0.00,VWS V14.01,2013-05-16 22:32:00,
2013-05-16 17:37:00,81.1,35.0,29.74,South,180,3.8,3.8,19,0.00,,---,0.00,0.00,VWS V14.01,2013-05-16 22:37:00,
2013-05-16 17:42:00,81.3,35.2,29.74,SSW,202,4.0,4.7,19,0.00,,---,0.00,0.00,VWS V14.01,2013-05-16 22:42:00,
2013-05-16 17:48:00,80.4,31.7,29.74,SSW,202,7.8,8.1,17,0.00,,---,0.00,0.00,VWS V14.01,2013-05-16 22:48:00,
2013-05-16 17:53:00,79.9,31.2,29.74,SSE,158,3.6,6.3,17,0.00,,---,0.00,0.00,VWS V14.01,2013-05-16 22:53:00,
2013-05-16 17:58:00,79.5,30.9,29.74,South,180,4.3,4.3,17,0.00,,---,0.00,0.00,VWS V14.01,2013-05-16 22:58:00,
2013-05-16 18:03:00,79.9,35.3,29.74,South,180,5.4,5.4,20,0.00,,---,0.00,0.00,VWS V14.01,2013-05-16 23:03:00,
2013-05-16 18:09:00,80.6,34.6,29.74,SSW,202,4.0,4.7,19,0.00,,---,0.00,0.00,VWS V14.01,2013-05-16 23:09:00,
2013-05-16 18:14:00,81.1,35.0,29.74,SSW,202,2.9,5.6,19,0.00,,---,0.00,0.00,VWS V14.01,2013-05-16 23:14:00,
2013-05-16 18:19:00,81.5,35.3,29.74,SSE,158,3.4,4.7,19,0.00,,---,0.00,0.00,VWS V14.01,2013-05-16 23:19:00,
2013-05-16 18:24:00,81.7,35.5,29.74,SSW,202,8.5,8.5,19,99.99,,---,99.99,0.00,VWS V14.01,2013-05-16 23:24:00,
2013-05-16 18:30:00,81.3,32.4,29.74,SSW,202,4.0,7.4,17,0.00,,---,0.00,0.00,VWS V14.01,2013-05-16 23:30:00,
2013-05-16 18:35:00,81.3,35.2,29.74,West,270,4.7,5.4,19,0.00,,---,0.00,0.00,VWS V14.01,2013-05-16 23:35:00,
2013-05-16 18:41:00,81.3,35.2,29.74,South,180,5.6,5.6,19,0.00,,---,0.00,0.00,VWS V14.01,2013-05-16 23:41:00,
2013-05-16 18:46:00,80.8,34.7,29.74,SW,225,4.0,4.0,19,0.00,,---,0.00,0.00,VWS V14.01,2013-05-16 23:46:00,
2013-05-16 18:52:00,80.6,34.6,29.74,SSE,158,10.3,10.3,19,0.00,,---,0.00,0.00,VWS V14.01,2013-05-16 23:52:00,
2013-05-16 18:58:00,80.2,35.6,29.76,South,180,3.8,6.5,20,0.00,,---,0.00,0.00,VWS V14.01,2013-05-16 23:58:00,
2013-05-16 19:03:00,80.2,35.6,29.76,SSW,202,6.5,6.5,20,0.00,,---,0.00,0.00,VWS V14.01,2013-05-17 00:03:00,
2013-05-16 19:08:00,79.9,35.3,29.74,South,180,3.4,5.4,20,0.00,,---,0.00,0.00,VWS V14.01,2013-05-17 00:08:00,
2013-05-16 19:14:00,79.7,35.1,29.74,South,180,4.5,6.5,20,0.00,,---,0.00,0.00,VWS V14.01,2013-05-17 00:14:00,
2013-05-16 19:19:00,79.7,35.1,29.74,WSW,248,4.0,5.8,20,0.00,,---,0.00,0.00,VWS V14.01,2013-05-17 00:19:00,
2013-05-16 19:25:00,79.3,34.8,29.74,SW,225,2.5,3.8,20,0.00,,---,0.00,0.00,VWS V14.01,2013-05-17 00:25:00,
2013-05-16 19:30:00,79.2,34.7,29.74,South,180,5.8,5.8,20,0.00,,---,0.00,0.00,VWS V14.01,2013-05-17 00:30:00,
2013-05-16 19:35:00,78.8,34.4,29.74,SSW,202,2.9,2.9,20,0.00,,---,0.00,0.00,VWS V14.01,2013-05-17 00:35:00,
2013-05-16 19:40:00,78.8,34.4,29.74,South,180,2.7,3.1,20,0.00,,---,0.00,0.00,VWS V14.01,2013-05-17 00:40:00,
2013-05-16 19:46:00,77.9,33.6,29.74,South,180,2.9,4.0,20,0.00,,---,0.00,0.00,VWS V14.01,2013-05-17 00:46:00,
2013-05-16 19:52:00,77.5,33.3,29.74,South,180,4.5,4.5,20,0.00,,---,0.00,0.00,VWS V14.01,2013-05-17 00:52:00,
2013-05-16 19:58:00,77.4,33.2,29.74,SSW,202,1.6,229.1,20,0.00,,---,0.00,0.00,VWS V14.01,2013-05-17 00:58:00,
2013-05-16 20:04:00,76.6,33.8,29.74,South,180,2.7,4.3,21,0.00,,---,0.00,0.00,VWS V14.01,2013-05-17 01:04:00,
2013-05-16 20:09:00,76.1,33.4,29.74,South,180,2.5,2.5,21,0.00,,---,0.00,0.00,VWS V14.01,2013-05-17 01:09:00,
2013-05-16 20:15:00,75.9,33.2,29.76,South,180,2.5,2.9,21,0.00,,---,0.00,0.00,VWS V14.01,2013-05-17 01:15:00,
2013-05-16 20:20:00,74.8,33.5,29.76,SSE,158,3.4,3.4,22,0.00,,---,0.00,0.00,VWS V14.01,2013-05-17 01:20:00,
2013-05-16 20:26:00,74.5,33.2,29.76,SSE,158,2.0,2.5,22,0.00,,---,0.00,0.00,VWS V14.01,2013-05-17 01:26:00,
2013-05-16 20:31:00,74.1,32.9,29.76,SSE,158,2.7,2.7,22,0.00,,---,0.00,0.00,VWS V14.01,2013-05-17 01:31:00,